Time;durP1;ratioP1;P1;durP2;ratioP2;P2;SDS_P1;SDS_P2;PMS_P1;PMS_P2;Temp;Humidity;BMP_temperature;BMP_pressure;BME280_temperature;BME280_humidity;BME280_pressure;Samples;Min_cycle;Max_cycle;Signal;HPM_P1;HPM_P2
2022/07/19 00:00:08;;;;;;;2.65;0.77;;;22.50;63.00;;;;;;5097197;28;20447;-77
2022/07/19 00:02:34;;;;;;;1.20;0.55;;;22.50;62.80;;;;;;5094442;28;20043;-77
2022/07/19 00:05:01;;;;;;;1.20;0.70;;;22.50;62.80;;;;;;5064293;28;20356;-77
2022/07/19 00:07:27;;;;;;;1.60;0.50;;;22.50;62.90;;;;;;5078269;28;20394;-77
2022/07/19 00:09:54;;;;;;;1.42;0.50;;;22.40;63.00;;;;;;5093282;28;20387;-77
2022/07/19 00:12:20;;;;;;;1.13;0.70;;;22.40;63.20;;;;;;5063958;28;20031;-77
2022/07/19 00:14:47;;;;;;;2.03;0.63;;;22.30;63.30;;;;;;5076031;28;20256;-77
2022/07/19 00:17:13;;;;;;;1.77;0.68;;;22.30;63.50;;;;;;5096321;28;20044;-77
2022/07/19 00:19:40;;;;;;;2.05;0.70;;;22.20;64.00;;;;;;5081952;28;20493;-77
2022/07/19 00:22:06;;;;;;;1.45;0.70;;;22.20;64.10;;;;;;5093605;28;20044;-77
2022/07/19 00:24:33;;;;;;;1.58;0.70;;;22.10;64.20;;;;;;5066628;28;20048;-77
2022/07/19 00:26:59;;;;;;;2.40;0.70;;;22.10;64.40;;;;;;5097248;28;20040;-77
2022/07/19 00:29:26;;;;;;;1.08;0.55;;;22.20;64.50;;;;;;5074338;28;20039;-86
2022/07/19 00:31:52;;;;;;;1.88;0.65;;;22.10;64.70;;;;;;5063964;28;20042;-76
2022/07/19 00:34:19;;;;;;;1.30;0.68;;;22.10;65.00;;;;;;5100203;28;20063;-77
2022/07/19 00:36:45;;;;;;;1.00;0.60;;;22.00;65.10;;;;;;5074838;28;20476;-80
2022/07/19 00:39:11;;;;;;;1.40;0.60;;;22.00;65.20;;;;;;5052125;28;20039;-77
2022/07/19 00:41:40;;;;;;;1.20;0.40;;;22.00;65.10;;;;;;5073821;28;20379;-77
2022/07/19 00:44:07;;;;;;;0.98;0.50;;;21.90;65.20;;;;;;5079272;28;20032;-76
2022/07/19 00:46:33;;;;;;;2.63;0.50;;;21.90;65.70;;;;;;5094934;28;20475;-76
2022/07/19 00:49:00;;;;;;;1.17;0.50;;;21.80;65.90;;;;;;5087660;28;20036;-77
2022/07/19 00:51:27;;;;;;;2.20;0.77;;;21.80;66.00;;;;;;5052775;28;20024;-77
2022/07/19 00:53:55;;;;;;;1.40;0.60;;;21.80;66.10;;;;;;5088838;28;20055;-76
2022/07/19 00:56:23;;;;;;;2.47;0.60;;;21.80;66.30;;;;;;5071942;28;20083;-78
2022/07/19 00:58:50;;;;;;;2.67;0.60;;;21.70;66.40;;;;;;5057009;28;20038;-81
2022/07/19 01:01:17;;;;;;;2.00;0.75;;;21.60;66.50;;;;;;5052946;28;20036;-78
2022/07/19 01:03:45;;;;;;;1.13;0.70;;;21.60;67.00;;;;;;5091673;28;20059;-77
2022/07/19 01:06:11;;;;;;;0.98;0.65;;;21.50;67.20;;;;;;5076439;28;20043;-78
2022/07/19 01:08:38;;;;;;;2.22;0.63;;;21.50;67.50;;;;;;5070440;28;20047;-78
2022/07/19 01:11:06;;;;;;;1.13;0.57;;;21.40;67.70;;;;;;5048026;28;20036;-81
2022/07/19 01:13:33;;;;;;;1.40;0.82;;;21.40;67.90;;;;;;5070048;28;20031;-85
2022/07/19 01:16:00;;;;;;;1.73;0.40;;;21.30;68.00;;;;;;5066245;28;20124;-81
2022/07/19 01:18:27;;;;;;;1.15;0.50;;;21.30;67.90;;;;;;5054899;28;20581;-78
2022/07/19 01:20:53;;;;;;;1.40;0.60;;;21.30;67.90;;;;;;5077759;28;20039;-78
2022/07/19 01:23:20;;;;;;;1.90;0.90;;;21.30;67.90;;;;;;5088793;28;20028;-81
2022/07/19 01:25:46;;;;;;;1.48;0.70;;;21.30;68.00;;;;;;5073736;28;20455;-78
2022/07/19 01:28:12;;;;;;;1.83;0.60;;;21.30;68.00;;;;;;5070259;28;20055;-78
2022/07/19 01:30:39;;;;;;;1.65;0.65;;;21.30;68.00;;;;;;5088950;28;20034;-79
2022/07/19 01:33:05;;;;;;;2.10;0.50;;;21.30;68.10;;;;;;5083955;28;20051;-78
2022/07/19 01:35:32;;;;;;;1.00;0.50;;;21.30;68.00;;;;;;5089403;28;20023;-81
2022/07/19 01:37:58;;;;;;;1.70;0.65;;;21.30;67.90;;;;;;5062505;28;20036;-81
2022/07/19 01:40:25;;;;;;;2.35;0.68;;;21.30;67.90;;;;;;5063439;28;20029;-80
2022/07/19 01:42:52;;;;;;;1.27;0.50;;;21.30;67.80;;;;;;5048013;28;20037;-79
2022/07/19 01:45:19;;;;;;;3.72;0.88;;;21.30;67.70;;;;;;5091180;28;20039;-81
2022/07/19 01:47:46;;;;;;;0.80;0.50;;;21.40;68.40;;;;;;5069921;28;20024;-80
2022/07/19 01:50:15;;;;;;;1.63;0.70;;;21.40;67.70;;;;;;5090966;28;20039;-79
2022/07/19 01:52:42;;;;;;;1.35;0.65;;;21.40;67.70;;;;;;5059973;28;20032;-80
2022/07/19 01:55:08;;;;;;;0.93;0.50;;;21.40;67.90;;;;;;5088080;28;20383;-80
2022/07/19 01:57:35;;;;;;;1.40;0.50;;;21.30;67.80;;;;;;5085396;28;20040;-81
2022/07/19 02:00:03;;;;;;;1.30;0.65;;;21.30;67.70;;;;;;5060524;28;20032;-79
2022/07/19 02:02:39;;;;;;;1.15;0.68;;;21.30;67.70;;;;;;5074408;28;20033;-80
2022/07/19 02:05:06;;;;;;;1.42;0.75;;;21.30;67.60;;;;;;5054039;28;20036;-79
2022/07/19 02:07:32;;;;;;;1.80;0.60;;;21.30;67.60;;;;;;5090558;28;20033;-79
2022/07/19 02:09:59;;;;;;;2.70;0.70;;;21.40;67.50;;;;;;5088416;28;20139;-81
2022/07/19 02:12:26;;;;;;;0.90;0.55;;;21.40;67.40;;;;;;5069204;28;20032;-79
2022/07/19 02:14:52;;;;;;;1.98;0.60;;;21.40;67.40;;;;;;5091802;28;20035;-81
2022/07/19 02:17:19;;;;;;;1.25;0.70;;;21.40;67.40;;;;;;5068630;28;20056;-82
2022/07/19 02:19:45;;;;;;;2.55;0.70;;;21.40;67.40;;;;;;5074680;28;20055;-80
2022/07/19 02:22:12;;;;;;;1.50;0.70;;;21.30;67.30;;;;;;5080646;28;20059;-84
2022/07/19 02:24:39;;;;;;;1.67;0.50;;;21.30;67.20;;;;;;5057573;28;20051;-78
2022/07/19 02:27:05;;;;;;;1.80;0.70;;;21.30;67.10;;;;;;5041711;28;20487;-80
2022/07/19 02:29:32;;;;;;;1.85;0.60;;;21.40;67.00;;;;;;5087154;28;20031;-80
2022/07/19 02:31:58;;;;;;;1.42;0.60;;;21.50;66.90;;;;;;5094699;28;20039;-79
2022/07/19 02:34:24;;;;;;;1.08;0.60;;;21.50;66.80;;;;;;5090817;28;20044;-80
2022/07/19 02:36:51;;;;;;;1.77;0.70;;;21.50;66.80;;;;;;5078926;28;20027;-81
2022/07/19 02:39:17;;;;;;;1.88;0.57;;;21.50;66.80;;;;;;5044029;28;20055;-80
2022/07/19 02:41:44;;;;;;;0.73;0.50;;;21.50;66.80;;;;;;5058603;28;20037;-79
2022/07/19 02:44:11;;;;;;;1.70;0.70;;;21.50;66.70;;;;;;5082844;28;20528;-79
2022/07/19 02:46:37;;;;;;;1.38;0.52;;;21.40;66.60;;;;;;5057745;28;20040;-81
2022/07/19 02:49:04;;;;;;;1.40;0.80;;;21.40;66.40;;;;;;5030300;28;20040;-82
2022/07/19 02:51:30;;;;;;;1.13;0.55;;;21.50;66.30;;;;;;5058671;28;20028;-82
2022/07/19 02:53:56;;;;;;;1.08;0.50;;;21.50;66.10;;;;;;5076591;28;20036;-80
2022/07/19 02:56:23;;;;;;;1.67;0.50;;;21.50;66.10;;;;;;5099142;28;20020;-80
2022/07/19 02:58:49;;;;;;;2.40;0.60;;;21.50;66.10;;;;;;5072851;28;20401;-83
2022/07/19 03:01:16;;;;;;;1.50;0.60;;;21.50;66.20;;;;;;5060313;28;20058;-79
2022/07/19 03:03:46;;;;;;;5.78;3.28;;;21.40;66.20;;;;;;5095326;28;20024;-78
2022/07/19 03:06:15;;;;;;;5.55;4.00;;;21.40;66.30;;;;;;5090975;28;20383;-78
2022/07/19 03:08:41;;;;;;;3.08;1.95;;;21.40;66.30;;;;;;5070630;28;20031;-78
2022/07/19 03:11:07;;;;;;;2.13;1.30;;;21.30;66.90;;;;;;5044845;28;20048;-78
2022/07/19 03:13:34;;;;;;;3.38;1.05;;;21.30;66.30;;;;;;5080131;28;20480;-78
2022/07/19 03:16:00;;;;;;;3.28;1.13;;;21.20;66.90;;;;;;5094008;28;20040;-77
2022/07/19 03:18:27;;;;;;;1.83;0.80;;;21.20;66.30;;;;;;5064156;28;20047;-78
2022/07/19 03:20:55;;;;;;;1.50;0.63;;;21.20;66.30;;;;;;5080530;28;20036;-77
2022/07/19 03:23:21;;;;;;;0.98;0.60;;;21.20;66.20;;;;;;5080426;28;20032;-78
2022/07/19 03:25:48;;;;;;;1.33;0.50;;;21.20;66.10;;;;;;5100156;28;20111;-78
2022/07/19 03:28:14;;;;;;;1.05;0.50;;;21.20;66.00;;;;;;5094673;28;20047;-78
2022/07/19 03:30:40;;;;;;;0.90;0.52;;;21.20;65.90;;;;;;5083010;28;20052;-77
2022/07/19 03:33:07;;;;;;;1.15;0.40;;;21.20;65.80;;;;;;5089054;28;20039;-78
2022/07/19 03:35:33;;;;;;;0.80;0.50;;;21.20;65.80;;;;;;5094268;28;20043;-78
2022/07/19 03:37:59;;;;;;;1.02;0.40;;;21.20;65.70;;;;;;5090669;28;20055;-78
2022/07/19 03:40:26;;;;;;;1.30;0.50;;;21.30;65.60;;;;;;5079777;28;20043;-76
2022/07/19 03:42:52;;;;;;;1.15;0.50;;;21.30;65.50;;;;;;5063445;28;20024;-77
2022/07/19 03:45:19;;;;;;;2.90;0.50;;;21.30;65.60;;;;;;5093176;28;20024;-75
2022/07/19 03:47:45;;;;;;;0.93;0.43;;;21.30;65.70;;;;;;5085055;28;20564;-75
2022/07/19 03:50:11;;;;;;;1.05;0.50;;;21.30;65.60;;;;;;5090837;28;20032;-75
2022/07/19 03:52:38;;;;;;;1.60;0.60;;;21.30;65.60;;;;;;5097881;28;20034;-75
2022/07/19 03:55:04;;;;;;;2.30;0.52;;;21.30;65.50;;;;;;5102561;28;20034;-75
2022/07/19 03:57:31;;;;;;;1.23;0.50;;;21.30;65.40;;;;;;5093557;28;20035;-75
2022/07/19 03:59:57;;;;;;;0.95;0.40;;;21.40;65.30;;;;;;5075505;28;20039;-75
2022/07/19 04:02:23;;;;;;;1.45;0.60;;;21.40;65.20;;;;;;5078058;28;20035;-75
2022/07/19 04:04:50;;;;;;;1.20;0.38;;;21.40;65.20;;;;;;5093651;28;20043;-75
2022/07/19 04:07:16;;;;;;;1.67;0.43;;;21.40;65.20;;;;;;5095385;28;20062;-75
2022/07/19 04:09:43;;;;;;;0.63;0.40;;;21.50;65.10;;;;;;5092121;28;20028;-75
2022/07/19 04:12:09;;;;;;;0.95;0.50;;;21.50;65.10;;;;;;5094410;28;20024;-75
2022/07/19 04:14:35;;;;;;;1.65;0.50;;;21.50;65.10;;;;;;5100964;28;20032;-75
2022/07/19 04:17:04;;;;;;;1.40;0.43;;;21.50;65.10;;;;;;5090716;28;20028;-75
2022/07/19 04:19:31;;;;;;;0.80;0.40;;;21.50;65.00;;;;;;5090215;28;20036;-75
2022/07/19 04:21:57;;;;;;;1.08;0.50;;;21.50;65.00;;;;;;5095610;28;20509;-75
2022/07/19 04:24:24;;;;;;;1.05;0.40;;;21.50;65.00;;;;;;5094041;28;20047;-75
2022/07/19 04:26:50;;;;;;;0.52;0.30;;;21.60;64.90;;;;;;5098733;28;20032;-75
2022/07/19 04:29:16;;;;;;;1.50;0.50;;;21.70;64.90;;;;;;5095422;28;20031;-76
2022/07/19 04:31:43;;;;;;;1.02;0.43;;;21.70;64.90;;;;;;5071842;28;20039;-74
2022/07/19 04:34:09;;;;;;;1.13;0.45;;;21.80;64.80;;;;;;5077447;28;20024;-76
2022/07/19 04:36:36;;;;;;;0.80;0.50;;;21.80;64.70;;;;;;5080565;28;20031;-77
2022/07/19 04:39:02;;;;;;;1.65;0.65;;;21.80;64.70;;;;;;5057568;28;20028;-77
2022/07/19 04:41:28;;;;;;;1.13;0.50;;;21.90;64.70;;;;;;5084118;28;20020;-76
2022/07/19 04:43:55;;;;;;;0.77;0.40;;;21.90;64.60;;;;;;5080424;28;20028;-77
2022/07/19 04:46:21;;;;;;;1.15;0.57;;;21.90;64.50;;;;;;5067571;28;20035;-78
2022/07/19 04:48:47;;;;;;;2.13;0.80;;;22.00;64.40;;;;;;5068547;28;20043;-78
2022/07/19 04:51:14;;;;;;;3.67;1.42;;;22.10;64.40;;;;;;5055133;28;20028;-78
2022/07/19 04:53:40;;;;;;;2.85;1.85;;;22.20;64.20;;;;;;5078883;28;20032;-78
2022/07/19 04:56:07;;;;;;;5.72;3.42;;;22.30;64.10;;;;;;5061527;28;20036;-77
2022/07/19 04:58:33;;;;;;;4.25;2.88;;;22.40;63.90;;;;;;5052074;28;20387;-77
2022/07/19 05:01:00;;;;;;;3.00;1.95;;;22.50;63.70;;;;;;5082498;28;20037;-77
2022/07/19 05:03:26;;;;;;;2.58;1.42;;;22.60;64.20;;;;;;5071561;28;20039;-76
2022/07/19 05:05:53;;;;;;;1.65;0.82;;;22.70;63.40;;;;;;5041232;28;20044;-75
2022/07/19 05:08:19;;;;;;;2.25;0.80;;;22.80;63.30;;;;;;5088371;28;20044;-76
2022/07/19 05:10:45;;;;;;;1.65;0.60;;;22.90;63.10;;;;;;5076679;28;20424;-74
2022/07/19 05:13:12;;;;;;;2.45;0.45;;;23.00;63.20;;;;;;5076810;28;20039;-78
2022/07/19 05:15:38;;;;;;;1.70;0.57;;;23.20;62.90;;;;;;5086975;28;20039;-77
2022/07/19 05:18:05;;;;;;;0.70;0.40;;;23.30;62.60;;;;;;5087615;28;20028;-78
2022/07/19 05:20:31;;;;;;;2.03;0.73;;;23.40;62.30;;;;;;5071757;28;20039;-78
2022/07/19 05:22:57;;;;;;;1.90;0.50;;;23.60;62.20;;;;;;5071478;28;20368;-78
2022/07/19 05:25:24;;;;;;;2.30;0.50;;;23.70;62.10;;;;;;5078725;28;20044;-77
2022/07/19 05:27:51;;;;;;;4.38;0.60;;;23.80;62.00;;;;;;5090242;28;20668;-78
2022/07/19 05:30:17;;;;;;;1.60;0.80;;;23.90;61.90;;;;;;5044287;28;20032;-78
2022/07/19 05:32:44;;;;;;;2.15;0.80;;;24.10;61.80;;;;;;5058461;28;20024;-78
2022/07/19 05:35:10;;;;;;;1.80;0.88;;;24.20;61.90;;;;;;5080501;28;20058;-78
2022/07/19 05:37:36;;;;;;;4.57;0.82;;;24.20;61.80;;;;;;5058822;28;20032;-78
2022/07/19 05:40:03;;;;;;;2.25;1.13;;;24.40;61.70;;;;;;5080641;28;20032;-78
2022/07/19 05:42:30;;;;;;;3.72;1.50;;;24.50;61.50;;;;;;5076629;28;20036;-79
2022/07/19 05:44:56;;;;;;;2.45;1.27;;;24.60;61.40;;;;;;5075689;28;20035;-80
2022/07/19 05:47:22;;;;;;;2.70;1.40;;;24.70;61.20;;;;;;5077442;28;20038;-80
2022/07/19 05:49:49;;;;;;;3.63;2.03;;;24.80;60.90;;;;;;5078497;28;20027;-78
2022/07/19 05:52:15;;;;;;;4.90;1.50;;;24.90;60.80;;;;;;5075052;28;20036;-81
2022/07/19 05:54:42;;;;;;;3.65;1.48;;;25.00;60.80;;;;;;5076463;28;20032;-79
2022/07/19 05:57:08;;;;;;;4.30;1.50;;;25.10;60.70;;;;;;5078283;28;20036;-76
2022/07/19 05:59:35;;;;;;;3.47;1.73;;;25.30;60.50;;;;;;5078159;28;20024;-76
2022/07/19 06:02:02;;;;;;;3.00;1.67;;;25.40;60.40;;;;;;5084558;28;20039;-77
2022/07/19 06:04:29;;;;;;;3.70;1.60;;;25.50;60.40;;;;;;5086131;28;20025;-77
2022/07/19 06:06:55;;;;;;;2.65;1.20;;;25.60;60.20;;;;;;5084863;28;20036;-77
2022/07/19 06:09:22;;;;;;;3.35;1.35;;;25.80;60.30;;;;;;5057596;28;20028;-77
2022/07/19 06:11:49;;;;;;;3.00;1.77;;;25.90;60.20;;;;;;5089250;28;20032;-76
2022/07/19 06:14:19;;;;;;;3.50;1.70;;;26.00;60.10;;;;;;5091926;28;20384;-77
2022/07/19 06:16:45;;;;;;;4.68;1.70;;;26.20;59.80;;;;;;5060180;28;20037;-77
2022/07/19 06:19:12;;;;;;;2.45;1.17;;;26.50;59.60;;;;;;5091420;28;20044;-78
2022/07/19 06:21:38;;;;;;;2.92;1.67;;;26.70;59.20;;;;;;5088688;28;20045;-77
2022/07/19 06:24:05;;;;;;;2.92;1.73;;;27.00;58.70;;;;;;5073758;28;20027;-77
2022/07/19 06:26:31;;;;;;;3.30;1.60;;;27.30;58.20;;;;;;5087849;28;20040;-77
2022/07/19 06:28:58;;;;;;;4.15;2.00;;;27.40;58.00;;;;;;5088520;28;20431;-76
2022/07/19 06:31:25;;;;;;;4.05;1.73;;;27.50;58.00;;;;;;5084311;28;20039;-76
2022/07/19 06:33:51;;;;;;;3.90;1.90;;;27.50;57.70;;;;;;5076726;28;20025;-76
2022/07/19 06:36:19;;;;;;;2.90;1.67;;;27.60;57.80;;;;;;5083937;28;20028;-76
2022/07/19 06:38:47;;;;;;;4.22;1.55;;;27.60;57.80;;;;;;5086066;28;20043;-76
2022/07/19 06:41:14;;;;;;;2.85;1.40;;;27.60;57.90;;;;;;5085027;28;20043;-76
2022/07/19 06:43:41;;;;;;;4.95;1.40;;;27.70;58.00;;;;;;5083072;28;20059;-76
2022/07/19 06:46:07;;;;;;;2.72;1.60;;;27.90;57.90;;;;;;5074414;28;20036;-76
2022/07/19 06:48:34;;;;;;;2.85;1.60;;;28.00;57.50;;;;;;5088712;28;20027;-76
2022/07/19 06:51:00;;;;;;;2.90;1.45;;;28.20;57.40;;;;;;5087559;28;20035;-74
2022/07/19 06:53:27;;;;;;;3.75;2.10;;;28.50;57.30;;;;;;5095224;28;20036;-74
2022/07/19 06:55:53;;;;;;;8.13;2.15;;;28.70;56.90;;;;;;5090257;28;20020;-74
2022/07/19 06:58:20;;;;;;;5.13;1.80;;;28.80;56.60;;;;;;5078976;28;20047;-74
2022/07/19 07:00:48;;;;;;;4.45;1.73;;;28.80;56.40;;;;;;5088134;28;20036;-74
2022/07/19 07:03:17;;;;;;;3.70;1.80;;;28.80;56.30;;;;;;5089198;28;20035;-75
2022/07/19 07:05:43;;;;;;;3.13;1.58;;;28.90;56.50;;;;;;5073987;28;20040;-75
2022/07/19 07:08:10;;;;;;;3.03;1.67;;;29.00;56.50;;;;;;5058148;28;20032;-77
2022/07/19 07:10:37;;;;;;;3.15;1.65;;;29.00;56.20;;;;;;5077503;28;20036;-76
2022/07/19 07:13:03;;;;;;;3.50;1.52;;;29.00;56.10;;;;;;5075315;28;20332;-75
2022/07/19 07:15:29;;;;;;;4.30;1.52;;;29.10;56.10;;;;;;5082662;28;20029;-75
2022/07/19 07:17:56;;;;;;;2.13;1.10;;;29.10;56.80;;;;;;5085328;28;20039;-75
2022/07/19 07:20:23;;;;;;;3.40;1.35;;;29.20;56.40;;;;;;5052717;28;20427;-75
2022/07/19 07:22:50;;;;;;;3.22;1.35;;;29.30;56.30;;;;;;5083098;28;20051;-75
2022/07/19 07:25:16;;;;;;;3.25;1.58;;;29.40;56.20;;;;;;5063795;28;20039;-75
2022/07/19 07:27:42;;;;;;;6.07;1.52;;;29.50;56.30;;;;;;5085491;28;20040;-77
2022/07/19 07:30:10;;;;;;;4.70;1.05;;;29.60;56.10;;;;;;5057489;28;20377;-77
2022/07/19 07:32:36;;;;;;;3.65;1.40;;;29.60;55.80;;;;;;5087454;28;20020;-77
2022/07/19 07:35:03;;;;;;;4.47;1.30;;;29.70;55.90;;;;;;5088139;28;20032;-77
2022/07/19 07:37:30;;;;;;;4.28;1.27;;;29.70;55.90;;;;;;5069698;28;20031;-77
2022/07/19 07:39:56;;;;;;;3.78;0.90;;;29.80;56.10;;;;;;5084360;28;20028;-77
2022/07/19 07:42:24;;;;;;;2.80;1.17;;;29.90;56.10;;;;;;5079916;28;20027;-77
2022/07/19 07:44:52;;;;;;;4.90;1.55;;;30.00;56.10;;;;;;5085298;28;20031;-77
2022/07/19 07:47:18;;;;;;;3.55;1.60;;;30.10;56.00;;;;;;5074666;28;20031;-77
2022/07/19 07:49:45;;;;;;;3.30;1.52;;;30.20;55.80;;;;;;5091076;28;20059;-76
2022/07/19 07:52:11;;;;;;;2.70;1.02;;;30.30;55.70;;;;;;5093570;28;20265;-76
2022/07/19 07:54:38;;;;;;;3.03;1.58;;;30.40;55.60;;;;;;5074668;28;20057;-75
2022/07/19 07:57:04;;;;;;;3.15;1.15;;;30.40;55.50;;;;;;5101502;28;20043;-75
2022/07/19 07:59:31;;;;;;;2.58;1.02;;;30.50;55.60;;;;;;5092751;28;20044;-75
2022/07/19 08:01:57;;;;;;;2.92;0.90;;;30.60;55.60;;;;;;5097149;28;20390;-75
2022/07/19 08:04:23;;;;;;;3.67;1.30;;;30.80;55.60;;;;;;5090518;28;20040;-76
2022/07/19 08:06:50;;;;;;;2.85;1.20;;;30.90;55.30;;;;;;5073826;28;20036;-76
2022/07/19 08:09:16;;;;;;;2.47;1.17;;;31.10;55.10;;;;;;5093268;28;20043;-75
2022/07/19 08:11:43;;;;;;;4.15;0.98;;;31.20;54.60;;;;;;5085509;28;20027;-75
2022/07/19 08:14:09;;;;;;;3.85;1.27;;;31.30;54.60;;;;;;5072865;28;20035;-76
2022/07/19 08:16:35;;;;;;;2.70;1.00;;;31.40;54.70;;;;;;5082929;28;20051;-75
2022/07/19 08:19:03;;;;;;;2.47;1.33;;;31.40;54.50;;;;;;5083330;28;20129;-75
2022/07/19 08:21:30;;;;;;;5.22;1.30;;;31.60;54.40;;;;;;5090719;28;20063;-75
2022/07/19 08:23:56;;;;;;;2.50;1.17;;;31.70;54.20;;;;;;5099809;28;20028;-75
2022/07/19 08:26:23;;;;;;;4.03;1.20;;;31.80;54.20;;;;;;5091915;28;20036;-76
2022/07/19 08:28:49;;;;;;;3.30;1.15;;;31.90;54.00;;;;;;5083921;28;20471;-76
2022/07/19 08:31:15;;;;;;;3.03;1.10;;;31.90;53.80;;;;;;5078677;28;20031;-75
2022/07/19 08:33:42;;;;;;;3.08;1.00;;;32.10;53.90;;;;;;5077716;28;20024;-76
2022/07/19 08:36:09;;;;;;;2.10;1.02;;;32.20;53.70;;;;;;5089154;28;20038;-75
2022/07/19 08:38:37;;;;;;;2.63;1.17;;;32.40;53.80;;;;;;5092755;28;20025;-77
2022/07/19 08:41:05;;;;;;;3.50;1.10;;;32.50;53.20;;;;;;5080598;28;20464;-78
2022/07/19 08:43:32;;;;;;;2.60;1.00;;;32.70;52.30;;;;;;5098638;28;20036;-79
2022/07/19 08:46:03;;;;;;;2.88;0.88;;;32.70;52.20;;;;;;5100019;28;20399;-80
2022/07/19 08:48:35;;;;;;;7.32;1.75;;;32.80;51.90;;;;;;5043640;28;20043;-79
2022/07/19 08:51:01;;;;;;;;;;;32.90;51.60;;;;;;5072646;28;20035;-79
2022/07/19 08:53:32;;;;;;;2.55;0.98;;;33.10;51.60;;;;;;5090200;28;19923;-79
2022/07/19 08:57:56;;;;;;;1.88;0.80;;;33.20;51.80;;;;;;5096460;28;20444;-79
2022/07/19 08:58:48;;;;;;;3.58;1.02;;;33.30;51.50;;;;;;5093616;28;20028;-79
2022/07/19 09:01:14;;;;;;;3.05;0.90;;;33.30;51.20;;;;;;5061126;28;20367;-79
2022/07/19 09:04:06;;;;;;;3.00;1.00;;;33.50;51.20;;;;;;5087301;28;20032;-79
2022/07/19 09:06:38;;;;;;;3.17;0.88;;;33.60;50.80;;;;;;5085504;28;20032;-79
2022/07/19 09:09:05;;;;;;;2.63;1.00;;;33.70;50.20;;;;;;5089958;28;20364;-77
2022/07/19 09:11:34;;;;;;;2.47;1.00;;;33.70;50.00;;;;;;5063408;28;20130;-77
2022/07/19 09:14:06;;;;;;;1.77;0.80;;;33.80;50.20;;;;;;5096661;28;20028;-78
2022/07/19 09:17:01;;;;;;;;;;;34.00;50.20;;;;;;5069713;28;20040;-77
2022/07/19 09:19:33;;;;;;;1.60;0.85;;;34.10;49.80;;;;;;5077355;28;20285;-77
2022/07/19 09:22:11;;;;;;;2.03;0.85;;;34.30;49.60;;;;;;5099323;28;20059;-77
2022/07/19 09:24:41;;;;;;;2.58;1.02;;;34.40;49.40;;;;;;5091890;28;20037;-78
2022/07/19 09:27:12;;;;;;;3.60;1.15;;;34.50;49.10;;;;;;5104191;28;20043;-77
2022/07/19 09:29:40;;;;;;;;;;;34.70;49.00;;;;;;5101185;28;20036;-77
2022/07/19 09:32:16;;;;;;;4.43;1.05;;;34.80;48.50;;;;;;5099876;28;19915;-77
2022/07/19 09:34:58;;;;;;;4.53;1.10;;;34.80;48.30;;;;;;5086347;28;20032;-77
2022/07/19 09:37:28;;;;;;;6.82;0.95;;;34.90;48.50;;;;;;5077075;28;20382;-77
2022/07/19 09:40:00;;;;;;;3.25;0.82;;;35.00;48.50;;;;;;5095044;28;20032;-77
2022/07/19 09:42:39;;;;;;;4.25;1.02;;;35.20;48.40;;;;;;5105099;28;20479;-77
2022/07/19 09:45:08;;;;;;;3.15;1.00;;;35.30;47.80;;;;;;5102106;28;20067;-77
2022/07/19 09:47:42;;;;;;;1.98;0.70;;;35.40;47.80;;;;;;5077620;28;20055;-77
2022/07/19 09:50:17;;;;;;;3.53;1.10;;;35.50;47.30;;;;;;5098704;28;20085;-77
2022/07/19 09:52:45;;;;;;;2.40;0.80;;;35.60;46.50;;;;;;5078845;28;20035;-74
2022/07/19 09:55:12;;;;;;;1.92;0.90;;;35.70;46.40;;;;;;5074004;28;20035;-74
2022/07/19 09:57:41;;;;;;;3.70;1.10;;;35.80;46.00;;;;;;5104606;28;20047;-74
2022/07/19 10:00:09;;;;;;;2.63;0.80;;;36.00;45.90;;;;;;5080164;28;20035;-75
2022/07/19 10:02:39;;;;;;;2.72;0.90;;;36.10;46.00;;;;;;5095382;28;20055;-74
2022/07/19 10:05:06;;;;;;;1.58;0.73;;;36.20;46.00;;;;;;5103106;28;20467;-74
2022/07/19 10:07:33;;;;;;;1.60;0.75;;;36.30;45.50;;;;;;5066057;28;20036;-74
2022/07/19 10:10:05;;;;;;;1.83;0.70;;;36.40;45.50;;;;;;5093842;28;20047;-74
2022/07/19 10:12:33;;;;;;;4.95;1.10;;;36.40;45.10;;;;;;5081547;28;20032;-75
2022/07/19 10:14:59;;;;;;;2.67;0.70;;;36.60;44.70;;;;;;5098072;28;20033;-75
2022/07/19 10:17:53;;;;;;;2.45;1.13;;;36.70;45.20;;;;;;5086886;28;20490;-74
2022/07/19 10:20:22;;;;;;;3.92;0.85;;;37.00;44.90;;;;;;5100613;28;20035;-75
2022/07/19 10:22:50;;;;;;;2.83;1.00;;;37.10;44.90;;;;;;5079228;28;20051;-74
2022/07/19 10:25:17;;;;;;;2.67;1.00;;;37.20;44.80;;;;;;5100276;28;20387;-74
2022/07/19 10:27:50;;;;;;;3.17;0.93;;;37.30;44.60;;;;;;5101232;28;20391;-74
2022/07/19 10:30:20;;;;;;;4.05;0.93;;;37.40;44.20;;;;;;5097777;28;20044;-74
2022/07/19 10:32:48;;;;;;;3.50;0.90;;;37.50;43.80;;;;;;5097622;28;20373;-77
2022/07/19 10:35:17;;;;;;;3.00;1.02;;;37.50;43.80;;;;;;5085803;28;20038;-77
2022/07/19 10:37:46;;;;;;;1.38;0.60;;;37.60;43.50;;;;;;5084011;28;20046;-77
2022/07/19 10:40:13;;;;;;;3.97;0.77;;;37.60;43.50;;;;;;5092990;28;20391;-77
2022/07/19 10:43:05;;;;;;;5.82;1.10;;;37.80;43.30;;;;;;5097353;28;20484;-77
2022/07/19 10:45:31;;;;;;;4.53;1.20;;;38.00;43.10;;;;;;5079749;28;20050;-77
2022/07/19 10:48:01;;;;;;;2.00;0.70;;;38.10;42.90;;;;;;5084378;28;20367;-77
2022/07/19 10:50:42;;;;;;;3.78;1.02;;;38.30;42.20;;;;;;5078587;28;20047;-77
2022/07/19 10:53:09;;;;;;;3.90;0.70;;;38.50;41.60;;;;;;5082866;28;20031;-77
2022/07/19 10:55:36;;;;;;;3.80;0.80;;;38.70;41.40;;;;;;5100459;28;20043;-77
2022/07/19 10:58:06;;;;;;;1.50;0.90;;;38.90;41.30;;;;;;5079048;28;20039;-77
2022/07/19 11:00:47;;;;;;;5.00;0.85;;;39.10;41.00;;;;;;5085835;28;20043;-78
2022/07/19 11:03:22;;;;;;;2.45;0.98;;;39.30;41.20;;;;;;5102341;28;20035;-77
2022/07/19 11:05:52;;;;;;;6.38;0.70;;;39.50;41.20;;;;;;5092479;28;20056;-77
2022/07/19 11:08:51;;;;;;;6.00;0.80;;;39.70;40.80;;;;;;5099181;28;20051;-77
2022/07/19 11:11:19;;;;;;;2.78;0.80;;;40.00;40.20;;;;;;5085586;28;20039;-77
2022/07/19 11:13:48;;;;;;;2.05;1.00;;;40.40;40.30;;;;;;5093274;28;20024;-78
2022/07/19 11:16:15;;;;;;;3.78;0.98;;;40.60;39.70;;;;;;5093420;28;20024;-78
2022/07/19 11:18:43;;;;;;;4.57;0.80;;;40.80;39.40;;;;;;5082136;28;20047;-78
2022/07/19 11:21:12;;;;;;;3.17;0.90;;;41.00;39.00;;;;;;5044911;28;20043;-77
2022/07/19 11:23:40;;;;;;;2.50;1.00;;;41.20;39.00;;;;;;5080504;28;20035;-78
2022/07/19 11:26:18;;;;;;;1.73;0.80;;;41.50;39.00;;;;;;5079550;28;20418;-78
2022/07/19 11:28:47;;;;;;;3.03;0.90;;;41.90;38.20;;;;;;5076396;28;20040;-78
2022/07/19 11:31:22;;;;;;;2.38;0.70;;;42.10;38.20;;;;;;5074998;28;20028;-79
2022/07/19 11:33:52;;;;;;;2.70;0.70;;;42.40;37.00;;;;;;5075886;28;20046;-79
2022/07/19 11:36:19;;;;;;;1.58;0.60;;;42.60;37.10;;;;;;5090202;28;20038;-78
2022/07/19 11:38:52;;;;;;;2.55;0.70;;;42.90;36.90;;;;;;5057396;28;20387;-80
2022/07/19 11:41:24;;;;;;;1.98;0.90;;;43.10;36.20;;;;;;5059618;28;20035;-79
2022/07/19 11:44:02;;;;;;;3.00;0.98;;;43.30;35.60;;;;;;5069900;28;20032;-79
2022/07/19 11:46:34;;;;;;;1.88;0.80;;;43.50;35.50;;;;;;5059736;28;20059;-79
2022/07/19 11:49:03;;;;;;;3.72;1.10;;;43.60;35.70;;;;;;5056556;28;20114;-79
2022/07/19 11:51:30;;;;;;;3.65;1.00;;;43.80;35.40;;;;;;5061042;28;20383;-79
2022/07/19 11:53:58;;;;;;;2.53;0.77;;;44.00;35.00;;;;;;5093018;28;20029;-80
2022/07/19 11:56:30;;;;;;;4.03;1.00;;;44.10;35.30;;;;;;5027532;28;20051;-80
2022/07/19 11:59:00;;;;;;;3.65;0.85;;;44.30;35.20;;;;;;5057717;28;20028;-80
2022/07/19 12:01:35;;;;;;;2.55;1.00;;;44.40;34.90;;;;;;5054158;28;20043;-81
2022/07/19 12:04:04;;;;;;;2.85;0.90;;;44.50;34.70;;;;;;5074439;28;20052;-80
2022/07/19 12:06:38;;;;;;;1.95;0.80;;;44.80;34.80;;;;;;5073451;28;20039;-81
2022/07/19 12:09:07;;;;;;;3.05;0.80;;;45.10;34.50;;;;;;5059196;28;20046;-79
2022/07/19 12:11:43;;;;;;;4.97;0.90;;;45.20;34.20;;;;;;5069632;28;20059;-79
2022/07/19 12:14:23;;;;;;;1.98;0.75;;;45.40;34.30;;;;;;5078040;28;20032;-79
2022/07/19 12:17:09;;;;;;;4.10;0.90;;;45.70;34.10;;;;;;5077104;28;20024;-79
2022/07/19 12:19:36;;;;;;;2.08;0.80;;;46.00;34.00;;;;;;5070896;28;20028;-79
2022/07/19 12:22:03;;;;;;;2.55;0.80;;;46.20;33.90;;;;;;5056156;28;20047;-79
2022/07/19 12:24:30;;;;;;;1.88;0.98;;;46.20;33.10;;;;;;5044248;28;20036;-80
2022/07/19 12:27:00;;;;;;;5.32;1.40;;;46.20;32.70;;;;;;5075456;28;20039;-79
2022/07/19 12:29:40;;;;;;;4.63;1.10;;;46.40;32.60;;;;;;5056449;28;20396;-79
2022/07/19 12:32:09;;;;;;;2.30;0.70;;;46.50;32.70;;;;;;5078164;28;20035;-79
2022/07/19 12:34:51;;;;;;;1.80;0.75;;;46.80;32.60;;;;;;5081916;28;20042;-79
2022/07/19 12:37:34;;;;;;;2.90;0.93;;;47.10;32.30;;;;;;5061506;28;20041;-79
2022/07/19 12:40:10;;;;;;;2.08;1.00;;;47.30;32.00;;;;;;5060419;28;20432;-78
2022/07/19 12:42:44;;;;;;;2.28;0.90;;;47.50;31.90;;;;;;5077722;28;20359;-79
2022/07/19 12:45:22;;;;;;;3.67;0.80;;;47.60;32.00;;;;;;5078676;28;20031;-79
2022/07/19 12:47:50;;;;;;;1.33;0.75;;;47.90;32.00;;;;;;5064947;28;20039;-79
2022/07/19 12:50:32;;;;;;;2.08;0.80;;;48.10;32.00;;;;;;5077415;28;20028;-79
2022/07/19 12:53:02;;;;;;;1.80;0.90;;;48.30;31.40;;;;;;5066655;28;20042;-79